Time;durP1;ratioP1;P1;durP2;ratioP2;P2;SDS_P1;SDS_P2;PMS_P1;PMS_P2;Temp;Humidity;BMP_temperature;BMP_pressure;BME280_temperature;BME280_humidity;BME280_pressure;Samples;Min_cycle;Max_cycle;Signal;HPM_P1;HPM_P2
2022/07/13 00:01:23;;;;;;;;;;;;;;;17.72;54.81;100019.22;4975265;28;19922;-68
2022/07/13 00:03:51;;;;;;;;;;;;;;;17.64;54.81;100015.97;4975257;28;20451;-67
2022/07/13 00:06:20;;;;;;;;;;;;;;;17.69;55.02;100016.72;4975567;28;20004;-69
2022/07/13 00:08:50;;;;;;;;;;;;;;;17.66;54.98;100016.81;4975248;28;19922;-70
2022/07/13 00:11:18;;;;;;;;;;;;;;;17.59;55.41;100010.09;4975226;28;19965;-69
2022/07/13 00:13:47;;;;;;;;;;;;;;;17.38;55.50;100006.25;4975409;28;20292;-67
2022/07/13 00:16:15;;;;;;;;;;;;;;;17.32;55.87;100011.56;4975169;28;19922;-68
2022/07/13 00:18:44;;;;;;;;;;;;;;;17.28;56.27;100008.19;4975232;28;19973;-69
2022/07/13 00:21:12;;;;;;;;;;;;;;;17.14;57.01;100020.56;4975103;28;19922;-69
2022/07/13 00:23:41;;;;;;;;;;;;;;;17.08;57.31;100012.09;4975049;28;19968;-69
2022/07/13 00:26:11;;;;;;;;;;;;;;;17.00;57.39;100009.69;4975326;28;20323;-69
2022/07/13 00:28:40;;;;;;;;;;;;;;;16.83;57.67;100011.75;4975358;28;20435;-69
2022/07/13 00:31:09;;;;;;;;;;;;;;;16.77;57.89;100009.34;4957880;28;19973;-68
2022/07/13 00:33:37;;;;;;;;;;;;;;;16.69;57.99;100011.22;4975230;28;20435;-68
2022/07/13 00:36:06;;;;;;;;;;;;;;;16.70;58.08;100002.56;4975307;28;19928;-69
2022/07/13 00:38:35;;;;;;;;;;;;;;;16.59;58.39;99999.38;4957671;28;19945;-68
2022/07/13 00:41:05;;;;;;;;;;;;;;;16.55;58.28;100005.47;4975013;28;19929;-69
2022/07/13 00:43:35;;;;;;;;;;;;;;;16.31;58.99;100004.19;4974891;28;20397;-69
2022/07/13 00:46:04;;;;;;;;;;;;;;;16.28;59.79;100003.38;4957626;28;19922;-68
2022/07/13 00:48:33;;;;;;;;;;;;;;;16.26;60.09;100002.56;4977442;28;19925;-69
2022/07/13 00:51:01;;;;;;;;;;;;;;;16.06;60.13;100003.78;4979070;28;19922;-68
2022/07/13 00:53:30;;;;;;;;;;;;;;;15.94;60.79;99998.84;4978626;28;19973;-68
2022/07/13 00:55:59;;;;;;;;;;;;;;;15.96;60.81;99999.66;4978960;28;19961;-69
2022/07/13 00:58:28;;;;;;;;;;;;;;;15.84;60.78;100006.75;4978650;28;19930;-68
2022/07/13 01:00:57;;;;;;;;;;;;;;;15.63;61.03;100007.94;4978549;28;19926;-68
2022/07/13 01:03:26;;;;;;;;;;;;;;;15.68;60.99;100001.00;4979297;28;20253;-69
2022/07/13 01:05:55;;;;;;;;;;;;;;;15.64;61.27;100001.94;4978390;28;19969;-69
2022/07/13 01:08:23;;;;;;;;;;;;;;;15.68;61.31;99995.88;4978689;28;20379;-69
2022/07/13 01:10:51;;;;;;;;;;;;;;;15.65;61.55;99990.75;4961221;28;19922;-67
2022/07/13 01:13:21;;;;;;;;;;;;;;;15.60;61.67;99994.28;4961762;28;19972;-69
2022/07/13 01:15:50;;;;;;;;;;;;;;;15.50;61.91;99992.75;4961280;28;20388;-69
2022/07/13 01:18:20;;;;;;;;;;;;;;;15.40;62.12;99984.28;4978032;28;19922;-68
2022/07/13 01:20:48;;;;;;;;;;;;;;;15.49;62.06;99994.47;4960939;28;20013;-68
2022/07/13 01:23:18;;;;;;;;;;;;;;;15.46;62.15;100004.78;4978456;28;20360;-67
2022/07/13 01:25:47;;;;;;;;;;;;;;;15.38;62.68;99986.88;4978334;28;19977;-68
2022/07/13 01:28:15;;;;;;;;;;;;;;;15.35;62.72;99996.38;4978359;28;20009;-68
2022/07/13 01:30:44;;;;;;;;;;;;;;;15.28;63.19;99985.28;4960741;28;19922;-68
2022/07/13 01:33:13;;;;;;;;;;;;;;;15.24;63.35;99987.94;4961077;28;20384;-68
2022/07/13 01:35:42;;;;;;;;;;;;;;;15.22;63.45;99987.13;4977852;28;19964;-68
2022/07/13 01:38:11;;;;;;;;;;;;;;;15.15;63.12;99988.06;4977879;28;20017;-69
2022/07/13 01:40:41;;;;;;;;;;;;;;;15.19;63.56;99989.72;4977827;28;19922;-67
2022/07/13 01:43:10;;;;;;;;;;;;;;;15.25;63.27;99981.94;4978159;28;19922;-68
2022/07/13 01:45:39;;;;;;;;;;;;;;;15.31;63.19;99985.25;4977613;28;19958;-68
2022/07/13 01:48:10;;;;;;;;;;;;;;;15.29;62.70;99991.28;4960494;28;19968;-68
2022/07/13 01:50:38;;;;;;;;;;;;;;;15.24;62.93;99985.38;4977993;28;20416;-69
2022/07/13 01:53:06;;;;;;;;;;;;;;;15.21;62.35;99977.72;4977608;28;19973;-68
2022/07/13 01:55:35;;;;;;;;;;;;;;;15.13;62.13;99982.13;4977513;28;19953;-68
2022/07/13 01:58:05;;;;;;;;;;;;;;;15.13;62.18;99987.25;4959995;28;19977;-69
2022/07/13 02:00:33;;;;;;;;;;;;;;;15.01;62.27;99980.56;4960253;28;19930;-69
2022/07/13 02:03:03;;;;;;;;;;;;;;;15.06;61.96;99972.78;4977699;28;20303;-68
2022/07/13 02:05:33;;;;;;;;;;;;;;;15.14;61.71;99978.69;4977568;28;20284;-68
2022/07/13 02:08:02;;;;;;;;;;;;;;;15.17;61.45;99976.03;4960415;28;19921;-68
2022/07/13 02:10:36;;;;;;;;;;;;;;;15.07;62.17;99977.91;4960397;28;20284;-68
2022/07/13 02:13:11;;;;;;;;;;;;;;;14.94;61.95;99975.53;4960061;28;19922;-69
2022/07/13 02:15:40;;;;;;;;;;;;;;;14.87;62.93;99968.78;4944132;28;20303;-69
2022/07/13 02:18:08;;;;;;;;;;;;;;;14.91;62.70;99967.84;4959919;28;19925;-68
2022/07/13 02:20:37;;;;;;;;;;;;;;;15.04;62.73;99969.41;4960141;28;20283;-68
2022/07/13 02:23:05;;;;;;;;;;;;;;;15.01;62.35;99974.56;4977151;28;19922;-69
2022/07/13 02:25:34;;;;;;;;;;;;;;;14.98;62.33;99974.59;4959955;28;20395;-69
2022/07/13 02:28:03;;;;;;;;;;;;;;;14.91;62.87;99971.28;4959700;28;19949;-69
2022/07/13 02:30:33;;;;;;;;;;;;;;;14.79;63.13;99968.88;4959693;28;19926;-68
2022/07/13 02:33:01;;;;;;;;;;;;;;;14.78;63.25;99970.59;4976954;28;20390;-68
2022/07/13 02:35:30;;;;;;;;;;;;;;;14.79;62.91;99968.88;4976836;28;19957;-69
2022/07/13 02:37:59;;;;;;;;;;;;;;;14.66;63.02;99970.75;4976762;28;19945;-69
2022/07/13 02:40:28;;;;;;;;;;;;;;;14.61;63.15;99969.13;4959807;28;20273;-69
2022/07/13 02:42:57;;;;;;;;;;;;;;;14.55;63.24;99964.91;4959480;28;19929;-68
2022/07/13 02:45:26;;;;;;;;;;;;;;;14.42;63.82;99973.59;4976542;28;19922;-69
2022/07/13 02:47:58;;;;;;;;;;;;;;;14.42;63.87;99983.06;4976596;28;19960;-68
2022/07/13 02:50:27;;;;;;;;;;;;;;;14.42;64.02;99978.75;4976583;28;19922;-68
2022/07/13 02:52:58;;;;;;;;;;;;;;;14.41;64.13;99982.19;4976613;28;19953;-68
2022/07/13 02:55:27;;;;;;;;;;;;;;;14.40;64.37;99980.47;4960353;28;20342;-68
2022/07/13 02:57:55;;;;;;;;;;;;;;;14.39;64.20;99983.94;4976893;28;19922;-68
2022/07/13 03:00:25;;;;;;;;;;;;;;;14.37;64.69;99980.50;4976444;28;19928;-68
2022/07/13 03:02:55;;;;;;;;;;;;;;;14.39;64.78;99977.94;4976612;28;20433;-67
2022/07/13 03:05:26;;;;;;;;;;;;;;;14.39;64.45;99989.06;4959161;28;19929;-68
2022/07/13 03:07:55;;;;;;;;;;;;;;;14.37;64.65;99975.38;4976211;28;19922;-68
2022/07/13 03:10:24;;;;;;;;;;;;;;;14.31;65.18;99980.59;4975440;28;19922;-68
2022/07/13 03:12:57;;;;;;;;;;;;;;;14.28;65.04;99985.72;4976527;28;19922;-68
2022/07/13 03:15:25;;;;;;;;;;;;;;;14.26;65.34;99987.47;4959147;28;20269;-68
2022/07/13 03:17:54;;;;;;;;;;;;;;;14.29;65.52;99978.88;4955217;29;19933;-68
2022/07/13 03:20:22;;;;;;;;;;;;;;;14.38;65.60;99983.94;4955534;29;19922;-68
2022/07/13 03:22:52;;;;;;;;;;;;;;;14.36;66.07;99986.53;4955506;29;20373;-69
2022/07/13 03:25:21;;;;;;;;;;;;;;;14.38;66.01;99987.34;4955601;29;19923;-69
2022/07/13 03:27:54;;;;;;;;;;;;;;;14.43;65.82;99985.59;4956645;29;19926;-68
2022/07/13 03:30:22;;;;;;;;;;;;;;;14.41;66.07;99982.19;4956504;28;20016;-68
2022/07/13 03:32:51;;;;;;;;;;;;;;;14.38;66.28;99984.78;4957092;29;19922;-69
2022/07/13 03:35:21;;;;;;;;;;;;;;;14.52;65.76;99988.03;4955627;29;19977;-69
2022/07/13 03:37:53;;;;;;;;;;;;;;;14.61;65.87;99985.34;4956503;28;19930;-68
2022/07/13 03:40:26;;;;;;;;;;;;;;;14.70;65.13;99985.28;4956741;28;19922;-68
2022/07/13 03:42:54;;;;;;;;;;;;;;;14.73;65.04;99995.50;4956681;28;20349;-68
2022/07/13 03:45:23;;;;;;;;;;;;;;;14.68;65.03;99997.25;4955207;29;20380;-68
2022/07/13 03:47:52;;;;;;;;;;;;;;;14.73;65.20;99994.66;4955028;29;19922;-69
2022/07/13 03:50:20;;;;;;;;;;;;;;;14.65;65.50;99994.75;4954980;29;19929;-68
2022/07/13 03:52:49;;;;;;;;;;;;;;;14.61;65.29;99993.06;4955139;29;19926;-69
2022/07/13 03:55:20;;;;;;;;;;;;;;;14.58;65.29;99993.13;4956141;28;19922;-68
2022/07/13 03:57:48;;;;;;;;;;;;;;;14.61;65.66;99995.63;4955336;29;19922;-69
2022/07/13 04:00:19;;;;;;;;;;;;;;;14.69;65.66;99992.97;4956360;28;19922;-68
2022/07/13 04:02:52;;;;;;;;;;;;;;;14.77;65.77;99988.59;4956462;28;19980;-68
2022/07/13 04:05:22;;;;;;;;;;;;;;;14.85;65.47;99996.22;4954879;29;19922;-67
2022/07/13 04:07:50;;;;;;;;;;;;;;;14.92;65.22;99982.41;4955066;29;19922;-68
2022/07/13 04:10:21;;;;;;;;;;;;;;;15.10;64.78;99989.88;4954721;29;19922;-68
2022/07/13 04:12:50;;;;;;;;;;;;;;;15.17;64.75;99988.91;4954841;29;20006;-68
2022/07/13 04:15:23;;;;;;;;;;;;;;;15.22;65.27;99982.81;4954812;29;19929;-68
2022/07/13 04:17:52;;;;;;;;;;;;;;;15.33;64.73;99982.69;4954642;29;19953;-69
2022/07/13 04:20:20;;;;;;;;;;;;;;;15.53;63.99;99984.94;4954655;29;19969;-69
2022/07/13 04:22:49;;;;;;;;;;;;;;;15.66;63.63;99997.63;4955789;29;19970;-69
2022/07/13 04:25:21;;;;;;;;;;;;;;;15.83;62.62;99995.63;4955892;29;19930;-69
2022/07/13 04:27:49;;;;;;;;;;;;;;;15.99;62.00;99989.31;4955027;29;19973;-68
2022/07/13 04:30:17;;;;;;;;;;;;;;;16.12;61.66;99991.69;4955715;28;20435;-69
2022/07/13 04:32:46;;;;;;;;;;;;;;;16.25;61.14;99990.56;4954598;29;19964;-69
2022/07/13 04:35:17;;;;;;;;;;;;;;;16.36;61.55;99993.81;4955903;28;19922;-70
2022/07/13 04:37:48;;;;;;;;;;;;;;;16.51;60.88;99996.06;4956047;28;20372;-69
2022/07/13 04:40:18;;;;;;;;;;;;;;;16.62;60.95;99999.31;4954586;29;19926;-69
2022/07/13 04:42:48;;;;;;;;;;;;;;;16.79;60.37;100007.56;4954454;29;19923;-68
2022/07/13 04:45:19;;;;;;;;;;;;;;;16.91;59.81;100007.31;4954512;29;19922;-69
2022/07/13 04:47:52;;;;;;;;;;;;;;;17.00;59.59;100007.09;4954372;29;20395;-68
2022/07/13 04:50:22;;;;;;;;;;;;;;;17.14;59.39;100010.22;4954830;29;19957;-69
2022/07/13 04:52:51;;;;;;;;;;;;;;;17.32;58.72;100007.22;4955499;28;19922;-69
2022/07/13 04:55:20;;;;;;;;;;;;;;;17.50;58.56;100008.53;4954679;29;20316;-69
2022/07/13 04:57:50;;;;;;;;;;;;;;;17.69;57.96;99999.50;4954736;29;20013;-69
2022/07/13 05:00:19;;;;;;;;;;;;;;;17.84;56.95;100008.59;4955791;29;19938;-69
2022/07/13 05:02:47;;;;;;;;;;;;;;;17.92;56.43;100001.53;4954237;29;19922;-69
2022/07/13 05:05:16;;;;;;;;;;;;;;;18.01;55.79;100006.44;4954279;29;19973;-69
2022/07/13 05:07:44;;;;;;;;;;;;;;;18.16;55.54;100011.22;4954526;29;20432;-69
2022/07/13 05:10:14;;;;;;;;;;;;;;;18.28;55.06;100010.91;4956106;28;19929;-69
2022/07/13 05:12:49;;;;;;;;;;;;;;;18.39;54.18;100003.69;4955414;28;19922;-69
2022/07/13 05:15:38;;;;;;;;;;;;;;;18.59;53.84;100004.03;4954272;29;19929;-69
2022/07/13 05:18:07;;;;;;;;;;;;;;;18.76;53.39;100005.28;4954018;29;20337;-68
2022/07/13 05:20:37;;;;;;;;;;;;;;;18.77;52.97;100009.56;4955390;28;19922;-68
2022/07/13 05:23:06;;;;;;;;;;;;;;;18.77;52.53;100004.38;4955629;28;19926;-67
2022/07/13 05:25:37;;;;;;;;;;;;;;;18.76;52.48;100003.56;4954132;29;19933;-69
2022/07/13 05:28:06;;;;;;;;;;;;;;;18.86;52.23;100004.16;4955244;28;19922;-69
2022/07/13 05:30:35;;;;;;;;;;;;;;;19.06;52.13;100013.00;4955883;29;19922;-69
2022/07/13 05:33:05;;;;;;;;;;;;;;;19.24;51.73;100003.84;4954277;28;19928;-68
2022/07/13 05:35:33;;;;;;;;;;;;;;;19.34;51.46;100007.81;4958920;28;19973;-68
2022/07/13 05:38:02;;;;;;;;;;;;;;;19.49;50.89;100009.97;4957448;29;19929;-68
2022/07/13 05:40:32;;;;;;;;;;;;;;;19.61;50.99;100011.31;4957394;29;19923;-68
2022/07/13 05:43:00;;;;;;;;;;;;;;;19.76;50.54;100011.69;4957298;29;19922;-68
2022/07/13 05:45:30;;;;;;;;;;;;;;;19.86;49.62;100002.72;4958492;29;19922;-68
2022/07/13 05:47:59;;;;;;;;;;;;;;;19.95;49.49;100011.91;4957213;29;19923;-69
2022/07/13 05:50:27;;;;;;;;;;;;;;;20.01;49.79;100009.94;4957295;29;19934;-68
2022/07/13 05:52:57;;;;;;;;;;;;;;;20.08;49.47;100004.56;4958310;29;20016;-68
2022/07/13 05:55:26;;;;;;;;;;;;;;;20.16;49.37;100010.31;4941463;29;19968;-68
2022/07/13 05:57:54;;;;;;;;;;;;;;;20.13;49.26;100003.50;4958314;28;19991;-68
2022/07/13 06:00:23;;;;;;;;;;;;;;;20.22;49.34;99987.69;4958184;29;19922;-66
2022/07/13 06:02:53;;;;;;;;;;;;;;;20.43;48.88;99994.69;4958105;28;19926;-69
2022/07/13 06:05:23;;;;;;;;;;;;;;;20.47;47.74;99992.81;4958476;29;19922;-68
2022/07/13 06:07:51;;;;;;;;;;;;;;;20.40;47.36;99994.78;4957892;29;20369;-67
2022/07/13 06:10:19;;;;;;;;;;;;;;;20.43;47.94;99999.88;4958342;29;20341;-67
2022/07/13 06:12:48;;;;;;;;;;;;;;;20.57;48.15;100007.16;4958535;29;19926;-67
2022/07/13 06:15:16;;;;;;;;;;;;;;;20.76;47.76;100007.31;4957976;28;19922;-69
2022/07/13 06:17:45;;;;;;;;;;;;;;;20.99;47.74;100008.19;4969421;28;19922;-68
2022/07/13 06:20:15;;;;;;;;;;;;;;;21.19;47.19;100013.47;4977436;28;19922;-68
2022/07/13 06:23:09;;;;;;;;;;;;;;;21.36;47.01;100000.69;4977121;28;19922;-70
2022/07/13 06:25:32;;;;;;;;;;;;;;;21.34;46.55;99986.06;4976879;28;20360;-67
2022/07/13 06:28:00;;;;;;;;;;;;;;;21.36;46.33;99995.50;4977159;28;19977;-68
2022/07/13 06:30:29;;;;;;;;;;;;;;;21.49;46.32;99989.81;4976912;28;19929;-69
2022/07/13 06:32:57;;;;;;;;;;;;;;;21.73;45.94;99988.81;4976847;28;19921;-68
2022/07/13 06:35:27;;;;;;;;;;;;;;;21.90;45.42;99991.59;4977695;28;19968;-68
2022/07/13 06:37:55;;;;;;;;;;;;;;;22.06;45.42;99990.03;4977438;28;19922;-67
2022/07/13 06:40:24;;;;;;;;;;;;;;;22.20;45.04;99989.41;4976828;28;19922;-68
2022/07/13 06:42:53;;;;;;;;;;;;;;;22.16;44.33;99977.47;4977135;28;20357;-69
2022/07/13 06:45:22;;;;;;;;;;;;;;;22.20;44.02;99985.06;4958562;28;20376;-68
2022/07/13 06:47:51;;;;;;;;;;;;;;;22.21;43.37;99983.31;4976733;28;19922;-67
2022/07/13 06:50:20;;;;;;;;;;;;;;;22.31;43.37;99987.22;4976557;28;19973;-68
2022/07/13 06:52:50;;;;;;;;;;;;;;;22.43;43.52;99989.28;4976615;28;19977;-66
2022/07/13 06:55:19;;;;;;;;;;;;;;;22.63;43.52;99984.91;4976520;28;19929;-68
2022/07/13 06:57:47;;;;;;;;;;;;;;;22.77;43.03;99986.88;4974771;28;19926;-69
2022/07/13 07:00:16;;;;;;;;;;;;;;;22.87;43.05;99998.56;4976530;28;19922;-68
2022/07/13 07:02:44;;;;;;;;;;;;;;;23.08;42.93;99996.75;4974061;28;19926;-68
2022/07/13 07:05:13;;;;;;;;;;;;;;;23.25;42.54;100000.22;4976233;28;19922;-67
2022/07/13 07:07:42;;;;;;;;;;;;;;;23.32;41.94;100011.22;4976139;28;19926;-68
2022/07/13 07:10:12;;;;;;;;;;;;;;;23.28;41.51;99999.22;4976603;28;20013;-69
2022/07/13 07:12:41;;;;;;;;;;;;;;;23.32;41.70;100006.00;4976503;28;19929;-68
2022/07/13 07:15:10;;;;;;;;;;;;;;;23.48;41.74;100012.19;4976127;28;19922;-69
2022/07/13 07:17:44;;;;;;;;;;;;;;;23.69;42.05;100005.09;4975790;28;19926;-69
2022/07/13 07:20:13;;;;;;;;;;;;;;;23.81;41.46;100005.34;4975906;28;19922;-69
2022/07/13 07:22:41;;;;;;;;;;;;;;;23.89;41.36;100003.19;4976203;28;20328;-69
2022/07/13 07:25:10;;;;;;;;;;;;;;;23.93;41.37;100002.13;4976237;28;19969;-69
2022/07/13 07:27:40;;;;;;;;;;;;;;;24.02;41.05;100007.81;4974775;28;19977;-69
2022/07/13 07:30:09;;;;;;;;;;;;;;;24.23;40.67;100012.81;4975860;28;20423;-69
2022/07/13 07:32:38;;;;;;;;;;;;;;;24.43;40.55;100010.00;4975850;28;19930;-69
2022/07/13 07:35:08;;;;;;;;;;;;;;;24.43;40.48;100003.91;4975944;28;20034;-69
2022/07/13 07:37:39;;;;;;;;;;;;;;;24.31;40.21;99994.13;4975881;28;20368;-67
2022/07/13 07:40:10;;;;;;;;;;;;;;;24.39;40.71;99989.34;4975741;28;19929;-68
2022/07/13 07:42:40;;;;;;;;;;;;;;;24.30;40.34;99977.66;4975674;28;19922;-69
2022/07/13 07:45:09;;;;;;;;;;;;;;;24.21;40.15;99979.88;4964494;28;20395;-69
2022/07/13 07:47:38;;;;;;;;;;;;;;;24.16;40.53;99979.28;4956670;29;19926;-70
2022/07/13 07:50:08;;;;;;;;;;;;;;;24.39;40.88;99981.53;4956154;29;19923;-69
2022/07/13 07:52:36;;;;;;;;;;;;;;;24.43;40.30;99978.66;4956418;29;19922;-67
2022/07/13 07:55:23;;;;;;;;;;;;;;;24.56;40.19;99981.47;4971351;28;20309;-69
2022/07/13 07:57:53;;;;;;;;;;;;;;;24.81;40.32;99984.47;4975332;28;19922;-69
2022/07/13 08:00:22;;;;;;;;;;;;;;;24.92;40.31;99992.59;4966812;28;19973;-69
2022/07/13 08:02:51;;;;;;;;;;;;;;;24.96;39.90;99983.66;4969926;28;19949;-69
2022/07/13 08:05:20;;;;;;;;;;;;;;;25.08;39.64;99975.16;4975065;28;20012;-70
2022/07/13 08:07:49;;;;;;;;;;;;;;;25.16;39.59;99980.81;4966827;28;19929;-70
2022/07/13 08:10:17;;;;;;;;;;;;;;;25.29;39.25;99980.94;4968847;28;19928;-69
2022/07/13 08:12:58;;;;;;;;;;;;;;;25.33;39.20;99976.41;4957219;28;19922;-68
2022/07/13 08:15:26;;;;;;;;;;;;;;;25.44;39.03;99971.38;4955936;29;19929;-68
2022/07/13 08:17:55;;;;;;;;;;;;;;;25.58;39.28;99963.66;4955578;29;19922;-69
2022/07/13 08:20:24;;;;;;;;;;;;;;;25.77;39.25;99970.31;4960115;28;19926;-70
2022/07/13 08:22:53;;;;;;;;;;;;;;;25.98;39.32;99954.31;4974820;28;19929;-70
2022/07/13 08:25:23;;;;;;;;;;;;;;;26.04;38.40;99954.78;4974747;28;19945;-69
2022/07/13 08:27:51;;;;;;;;;;;;;;;25.98;39.93;99954.31;4974766;28;19932;-69
2022/07/13 08:30:21;;;;;;;;;;;;;;;25.92;39.42;99958.13;4974847;28;19922;-70
2022/07/13 08:32:50;;;;;;;;;;;;;;;25.81;39.49;99955.31;4974627;28;20403;-68
2022/07/13 08:40:35;;;;;;;;;;;;;;;25.77;39.65;99948.59;4974978;28;19969;-70
2022/07/13 08:43:05;;;;;;;;;;;;;;;25.92;40.04;99939.81;4974935;28;20407;-71
2022/07/13 08:45:35;;;;;;;;;;;;;;;25.96;39.67;99936.91;4974889;28;19973;-69
2022/07/13 08:48:07;;;;;;;;;;;;;;;26.09;38.97;99929.19;4975180;28;20005;-68
2022/07/13 08:50:36;;;;;;;;;;;;;;;26.14;38.81;99929.78;4973657;28;20017;-69
2022/07/13 08:53:06;;;;;;;;;;;;;;;26.35;38.98;99928.47;4971007;28;19993;-71
2022/07/13 08:55:36;;;;;;;;;;;;;;;26.57;37.74;99931.44;4972415;28;19977;-69
2022/07/13 08:58:05;;;;;;;;;;;;;;;26.56;36.78;99929.75;4972660;28;19949;-71
2022/07/13 09:00:35;;;;;;;;;;;;;;;26.41;35.90;99928.09;4974653;28;19922;-69
2022/07/13 09:03:03;;;;;;;;;;;;;;;26.28;36.35;99924.53;4961659;28;19922;-70
2022/07/13 09:05:32;;;;;;;;;;;;;;;26.25;36.90;99927.34;4955402;29;19922;-71
2022/07/13 09:08:02;;;;;;;;;;;;;;;26.27;36.29;99933.34;4955757;28;19929;-69
2022/07/13 09:10:30;;;;;;;;;;;;;;;26.42;36.35;99928.91;4959187;29;19949;-70
2022/07/13 09:12:59;;;;;;;;;;;;;;;26.45;36.59;99929.59;4959024;29;19977;-71
2022/07/13 09:15:32;;;;;;;;;;;;;;;26.48;36.13;99929.41;4959114;29;19927;-70
2022/07/13 09:18:02;;;;;;;;;;;;;;;26.59;35.43;99926.94;4958856;29;19930;-71
2022/07/13 09:20:30;;;;;;;;;;;;;;;26.83;34.94;99923.75;4961682;28;20394;-71
2022/07/13 09:23:05;;;;;;;;;;;;;;;27.13;35.13;99916.56;4965020;28;20369;-70
2022/07/13 09:25:37;;;;;;;;;;;;;;;27.41;35.42;99931.34;4958788;29;20368;-68
2022/07/13 09:28:06;;;;;;;;;;;;;;;27.56;34.81;99925.94;4958823;29;19922;-70
2022/07/13 09:30:35;;;;;;;;;;;;;;;27.80;34.69;99919.03;4958701;29;19954;-70
2022/07/13 09:33:05;;;;;;;;;;;;;;;27.91;34.38;99924.38;4969704;28;19922;-69
2022/07/13 09:35:45;;;;;;;;;;;;;;;28.11;34.50;99922.22;4977941;28;20407;-70
2022/07/13 09:38:23;;;;;;;;;;;;;;;28.23;33.94;99926.63;4978216;28;20012;-70
2022/07/13 09:40:51;;;;;;;;;;;;;;;28.26;33.61;99926.41;4972152;28;19922;-72
2022/07/13 09:48:51;;;;;;;;;;;;;;;28.47;33.63;99912.63;4973004;28;19928;-71
2022/07/13 09:51:26;;;;;;;;;;;;;;;28.51;33.38;99931.63;4977724;28;19926;-71
2022/07/13 09:54:00;;;;;;;;;;;;;;;28.55;32.75;99925.22;4978327;28;20020;-71
2022/07/13 09:56:30;;;;;;;;;;;;;;;28.65;32.51;99922.81;4977399;28;19926;-70
2022/07/13 09:58:59;;;;;;;;;;;;;;;28.56;32.50;99913.75;4977871;28;19928;-70
2022/07/13 10:01:28;;;;;;;;;;;;;;;28.60;32.37;99917.88;4977710;28;19978;-71
2022/07/13 10:04:08;;;;;;;;;;;;;;;28.68;32.11;99912.91;4975173;28;19922;-71
2022/07/13 10:06:56;;;;;;;;;;;;;;;28.69;32.45;99914.59;4977468;28;19925;-73
2022/07/13 10:09:25;;;;;;;;;;;;;;;28.84;33.10;99918.72;4977102;28;19926;-71
2022/07/13 10:11:54;;;;;;;;;;;;;;;28.87;31.97;99918.53;4977041;28;19926;-73
2022/07/13 10:14:23;;;;;;;;;;;;;;;28.95;31.97;99921.44;4977480;28;19929;-69
2022/07/13 10:16:53;;;;;;;;;;;;;;;29.05;31.61;99913.72;4977051;28;20312;-77
2022/07/13 10:19:22;;;;;;;;;;;;;;;29.23;32.25;99909.75;4976735;28;20273;-73
2022/07/13 10:22:00;;;;;;;;;;;;;;;29.29;32.33;99909.34;4976568;28;19929;-69
2022/07/13 10:24:28;;;;;;;;;;;;;;;29.28;32.33;99907.63;4977662;28;19937;-70
2022/07/13 10:27:12;;;;;;;;;;;;;;;29.45;32.96;99909.00;4977300;28;19976;-69
2022/07/13 10:29:48;;;;;;;;;;;;;;;29.50;32.73;99913.00;4959248;28;19948;-69
2022/07/13 10:32:18;;;;;;;;;;;;;;;29.47;32.29;99901.84;4960061;28;19921;-72
2022/07/13 10:34:58;;;;;;;;;;;;;;;29.41;32.28;99897.91;4976866;28;19937;-71
2022/07/13 10:37:27;;;;;;;;;;;;;;;29.58;33.01;99899.25;4977190;28;19922;-70
2022/07/13 10:40:06;;;;;;;;;;;;;;;29.62;32.07;99906.81;4976747;28;19949;-71
2022/07/13 10:42:50;;;;;;;;;;;;;;;29.57;31.67;99908.09;4976811;28;19921;-72
2022/07/13 10:45:30;;;;;;;;;;;;;;;29.58;31.33;99902.72;4976553;28;19972;-73
2022/07/13 10:47:59;;;;;;;;;;;;;;;29.65;31.25;99900.47;4975533;28;19977;-71
2022/07/13 10:50:34;;;;;;;;;;;;;;;29.70;31.04;99901.81;4976622;28;19922;-72
2022/07/13 10:53:08;;;;;;;;;;;;;;;29.66;30.93;99902.13;4976542;28;19922;-71
2022/07/13 10:55:47;;;;;;;;;;;;;;;29.73;30.79;99901.56;4976736;28;20369;-72
2022/07/13 10:58:42;;;;;;;;;;;;;;;29.81;31.16;99907.13;4976791;28;20376;-71
2022/07/13 11:01:25;;;;;;;;;;;;;;;30.00;31.87;99917.06;4959154;28;20311;-71
2022/07/13 11:03:54;;;;;;;;;;;;;;;30.11;31.48;99911.81;4974637;28;19926;-71
2022/07/13 11:06:24;;;;;;;;;;;;;;;30.09;30.73;99905.81;4967310;28;19923;-71
2022/07/13 11:09:08;;;;;;;;;;;;;;;30.18;31.29;99905.13;4956961;29;19922;-71
2022/07/13 11:11:43;;;;;;;;;;;;;;;30.25;30.82;99916.84;4957208;29;19923;-71
2022/07/13 11:14:23;;;;;;;;;;;;;;;30.14;30.46;99908.13;4956931;29;19956;-70
2022/07/13 11:16:52;;;;;;;;;;;;;;;30.26;30.64;99902.72;4956607;29;20020;-69
2022/07/13 11:19:35;;;;;;;;;;;;;;;30.22;30.18;99906.53;4956789;29;20432;-70
2022/07/13 11:22:07;;;;;;;;;;;;;;;30.31;30.96;99905.81;4956273;29;19922;-72
2022/07/13 11:27:22;;;;;;;;;;;;;;;30.44;30.83;99911.00;4976291;28;19922;-69
2022/07/13 11:29:52;;;;;;;;;;;;;;;30.57;30.61;99906.41;4973288;28;19932;-70
2022/07/13 11:32:27;;;;;;;;;;;;;;;30.52;29.98;99902.50;4955761;28;19922;-72
2022/07/13 11:34:56;;;;;;;;;;;;;;;30.47;30.07;99890.50;4962707;28;19922;-69
2022/07/13 11:37:26;;;;;;;;;;;;;;;30.58;30.68;99896.72;4956769;29;20291;-70
2022/07/13 11:39:55;;;;;;;;;;;;;;;30.60;29.84;99884.25;4956691;29;19926;-70
2022/07/13 11:42:23;;;;;;;;;;;;;;;30.75;29.90;99896.22;4956417;28;19973;-72
2022/07/13 11:44:53;;;;;;;;;;;;;;;30.83;29.46;99896.44;4956297;29;19958;-73
2022/07/13 11:47:21;;;;;;;;;;;;;;;30.76;28.77;99890.81;4956259;29;19974;-71
2022/07/13 11:49:51;;;;;;;;;;;;;;;30.71;28.71;99886.88;4956482;29;19944;-72
2022/07/13 11:52:20;;;;;;;;;;;;;;;30.80;29.31;99883.50;4956054;28;19930;-69
2022/07/13 11:54:59;;;;;;;;;;;;;;;30.86;29.27;99875.06;4964792;28;20041;-70
2022/07/13 11:57:30;;;;;;;;;;;;;;;30.89;28.72;99883.63;4975479;28;19928;-70
2022/07/13 12:00:02;;;;;;;;;;;;;;;30.95;28.14;99885.78;4975799;28;19973;-72
2022/07/13 12:02:41;;;;;;;;;;;;;;;31.14;28.07;99874.56;4969075;28;19930;-70
2022/07/13 12:05:10;;;;;;;;;;;;;;;31.19;27.77;99877.66;4973236;28;19922;-71
2022/07/13 12:07:46;;;;;;;;;;;;;;;31.23;27.81;99879.06;4975798;28;20288;-72
2022/07/13 12:10:15;;;;;;;;;;;;;;;31.20;27.81;99868.75;4975746;28;20395;-71
2022/07/13 12:12:45;;;;;;;;;;;;;;;31.32;27.77;99873.00;4968833;28;19980;-69
2022/07/13 12:15:13;;;;;;;;;;;;;;;31.42;28.09;99868.66;4973791;28;19922;-71
2022/07/13 12:17:43;;;;;;;;;;;;;;;31.38;28.00;99867.25;4974933;28;19926;-72
2022/07/13 12:20:13;;;;;;;;;;;;;;;31.35;27.32;99859.56;4974723;28;19925;-73
2022/07/13 12:22:49;;;;;;;;;;;;;;;31.41;27.53;99861.69;4968651;28;20001;-72
2022/07/13 12:25:25;;;;;;;;;;;;;;;31.42;27.87;99860.72;4965311;28;19921;-73
2022/07/13 12:27:55;;;;;;;;;;;;;;;31.42;27.43;99871.28;4968791;28;20496;-73
2022/07/13 12:30:23;;;;;;;;;;;;;;;31.44;27.33;99865.91;4965538;28;20380;-70
2022/07/13 12:32:55;;;;;;;;;;;;;;;31.52;27.67;99864.31;4956850;28;20025;-71
2022/07/13 12:35:29;;;;;;;;;;;;;;;31.50;26.81;99852.19;4954431;29;19922;-72
2022/07/13 12:37:58;;;;;;;;;;;;;;;31.49;26.72;99854.00;4955568;29;19923;-69
2022/07/13 12:40:38;;;;;;;;;;;;;;;31.58;26.49;99853.22;4955869;29;20254;-74
2022/07/13 12:43:16;;;;;;;;;;;;;;;31.49;25.35;99846.09;4957645;28;19929;-73
2022/07/13 12:45:45;;;;;;;;;;;;;;;31.42;24.97;99836.97;4959905;29;19926;-71
2022/07/13 12:48:13;;;;;;;;;;;;;;;31.32;25.00;99846.63;4959486;29;19922;-69
2022/07/13 12:50:42;;;;;;;;;;;;;;;31.24;24.92;99843.81;4959452;29;19931;-70
2022/07/13 12:53:11;;;;;;;;;;;;;;;31.35;25.88;99841.09;4959707;29;20010;-71
2022/07/13 12:55:50;;;;;;;;;;;;;;;31.38;25.57;99846.13;4965406;28;19922;-70
2022/07/13 12:58:20;;;;;;;;;;;;;;;31.34;24.61;99828.84;4962042;28;19958;-71
2022/07/13 13:00:48;;;;;;;;;;;;;;;31.36;24.77;99837.47;4970318;28;19969;-71
2022/07/13 13:03:19;;;;;;;;;;;;;;;31.37;24.15;99844.44;4959569;29;19965;-70
2022/07/13 13:05:48;;;;;;;;;;;;;;;31.35;23.69;99841.09;4965917;28;19929;-69
2022/07/13 13:08:16;;;;;;;;;;;;;;;31.39;24.09;99839.88;4963550;28;20265;-71
2022/07/13 13:10:45;;;;;;;;;;;;;;;31.36;23.70;99832.19;4963815;28;19968;-73
2022/07/13 13:13:13;;;;;;;;;;;;;;;31.39;23.82;99829.31;4977741;28;19930;-73
2022/07/13 13:15:44;;;;;;;;;;;;;;;31.29;23.20;99822.31;4976072;28;19921;-73